Time;durP1;ratioP1;P1;durP2;ratioP2;P2;SDS_P1;SDS_P2;PMS_P1;PMS_P2;Temp;Humidity;BMP_temperature;BMP_pressure;BME280_temperature;BME280_humidity;BME280_pressure;Samples;Min_cycle;Max_cycle;Signal;HPM_P1;HPM_P2
2023/09/24 00:00:32;;;;;;;3.10;2.55;;;;;;;9.71;100.00;102142.81;1250784;23;20266;-91
2023/09/24 00:01:04;;;;;;;3.25;2.90;;;;;;;9.80;100.00;102151.56;1254608;23;20278;-91
2023/09/24 00:01:36;;;;;;;3.00;2.70;;;;;;;9.84;100.00;102144.88;1254254;23;20274;-91
2023/09/24 00:02:07;;;;;;;8.57;3.85;;;;;;;9.87;100.00;102144.53;1254757;23;20294;-91
2023/09/24 00:02:39;;;;;;;26.27;4.65;;;;;;;9.60;100.00;102151.25;1248490;23;20279;-91
2023/09/24 00:03:12;;;;;;;5.65;3.35;;;;;;;9.56;100.00;102149.91;1254207;23;20672;-91
2023/09/24 00:03:46;;;;;;;4.93;4.00;;;;;;;9.58;100.00;102148.72;1254591;23;20277;-91
2023/09/24 00:04:18;;;;;;;7.88;4.80;;;;;;;9.69;100.00;102152.81;1254194;23;20259;-91
2023/09/24 00:04:50;;;;;;;5.10;2.90;;;;;;;9.67;100.00;102140.72;1242304;23;20458;-91
2023/09/24 00:05:21;;;;;;;5.38;3.47;;;;;;;9.77;100.00;102154.59;1248144;23;20275;-91
2023/09/24 00:05:53;;;;;;;13.70;3.47;;;;;;;9.53;100.00;102152.94;1248230;23;20263;-91
2023/09/24 00:06:25;;;;;;;5.82;3.75;;;;;;;9.63;100.00;102163.34;1254603;23;20270;-91
2023/09/24 00:06:56;;;;;;;9.63;4.05;;;;;;;9.68;100.00;102158.31;1248300;23;20675;-91
2023/09/24 00:07:28;;;;;;;5.25;3.53;;;;;;;9.63;100.00;102163.34;1254131;23;20581;-91
2023/09/24 00:08:00;;;;;;;9.00;3.75;;;;;;;9.81;100.00;102147.91;1254088;23;20306;-91
2023/09/24 00:08:32;;;;;;;7.30;4.07;;;;;;;9.83;100.00;102152.03;1248327;23;20268;-91
2023/09/24 00:09:03;;;;;;;3.72;3.33;;;;;;;9.71;100.00;102157.97;1251321;23;20284;-91
2023/09/24 00:09:35;;;;;;;5.63;3.60;;;;;;;9.74;100.00;102165.59;1254306;23;20664;-91
2023/09/24 00:10:07;;;;;;;4.85;3.72;;;;;;;9.74;100.00;102152.28;1255320;23;20263;-91
2023/09/24 00:10:38;;;;;;;7.88;3.70;;;;;;;9.70;100.00;102158.97;1254131;23;20267;-91
2023/09/24 00:11:11;;;;;;;13.82;3.50;;;;;;;9.66;100.00;102160.34;1254303;23;20279;-91
2023/09/24 00:11:42;;;;;;;5.13;3.95;;;;;;;9.73;100.00;102161.28;1248723;23;20267;-91
2023/09/24 00:12:14;;;;;;;8.25;4.80;;;;;;;9.59;100.00;102161.06;1248347;23;20279;-91
2023/09/24 00:12:46;;;;;;;5.20;4.30;;;;;;;9.62;100.00;102164.38;1248304;23;20286;-91
2023/09/24 00:13:22;;;;;;;4.13;3.72;;;;;;;9.53;100.00;102156.41;1267136;23;20284;-91
2023/09/24 00:13:54;;;;;;;9.82;4.05;;;;;;;9.52;100.00;102159.25;1266603;23;20629;-91
2023/09/24 00:14:30;;;;;;;5.05;3.35;;;;;;;9.54;100.00;102167.88;1254219;23;20275;-90
2023/09/24 00:15:02;;;;;;;8.55;3.08;;;;;;;9.60;100.00;102156.56;1254222;23;20285;-91
2023/09/24 00:15:34;;;;;;;3.65;3.28;;;;;;;9.62;100.00;102165.19;1248271;23;20275;-91
2023/09/24 00:16:06;;;;;;;6.30;3.60;;;;;;;9.59;100.00;102162.88;1253824;23;20370;-91
2023/09/24 00:16:38;;;;;;;6.00;3.97;;;;;;;9.64;100.00;102162.34;1260428;23;20278;-91
2023/09/24 00:17:10;;;;;;;5.75;3.08;;;;;;;9.56;100.00;102160.56;1254187;23;20585;-91
2023/09/24 00:17:41;;;;;;;7.50;4.30;;;;;;;9.59;100.00;102161.06;1248145;23;20366;-91
2023/09/24 00:18:13;;;;;;;4.50;3.80;;;;;;;9.65;100.00;102158.69;1248117;23;20637;-91
2023/09/24 00:18:45;;;;;;;5.15;3.85;;;;;;;9.55;100.00;102166.88;1253994;23;20361;-91
2023/09/24 00:19:17;;;;;;;6.32;4.00;;;;;;;9.60;100.00;102168.03;1248760;23;20308;-91
2023/09/24 00:19:48;;;;;;;13.40;3.47;;;;;;;9.57;100.00;102168.34;1250352;23;20744;-91
2023/09/24 00:20:20;;;;;;;4.63;2.50;;;;;;;9.57;100.00;102167.53;1248078;23;20283;-91
2023/09/24 00:20:52;;;;;;;3.35;2.83;;;;;;;9.57;100.00;102165.69;1247998;23;20267;-92
2023/09/24 00:21:24;;;;;;;10.60;3.60;;;;;;;9.54;100.00;102168.72;1250604;23;20608;-91
2023/09/24 00:21:56;;;;;;;7.13;3.47;;;;;;;9.52;100.00;102164.56;1248587;23;20279;-91
2023/09/24 00:22:28;;;;;;;6.43;3.80;;;;;;;9.43;100.00;102171.78;1253942;23;20271;-91
2023/09/24 00:22:59;;;;;;;3.40;3.05;;;;;;;9.46;100.00;102171.44;1259953;23;20353;-91
2023/09/24 00:23:31;;;;;;;6.60;3.95;;;;;;;9.59;100.00;102168.22;1250357;23;20255;-91
2023/09/24 00:24:03;;;;;;;5.85;3.85;;;;;;;9.41;100.00;102173.78;1248254;23;20633;-92
2023/09/24 00:24:35;;;;;;;9.00;3.42;;;;;;;9.32;100.00;102166.88;1254439;23;20266;-91
2023/09/24 00:25:06;;;;;;;5.38;3.13;;;;;;;9.36;100.00;102176.16;1242399;23;20290;-91
2023/09/24 00:25:39;;;;;;;5.22;3.38;;;;;;;9.28;100.00;102173.53;1241984;23;20295;-91
2023/09/24 00:26:11;;;;;;;7.22;3.28;;;;;;;9.34;100.00;102167.53;1248135;23;20267;-91
2023/09/24 00:26:45;;;;;;;3.72;3.38;;;;;;;9.53;100.00;102177.69;1259983;23;20273;-91
2023/09/24 00:27:16;;;;;;;3.15;2.80;;;;;;;9.44;100.00;102178.75;1254536;23;20281;-91
2023/09/24 00:27:48;;;;;;;3.03;2.70;;;;;;;9.31;100.00;102170.50;1248198;23;20267;-90
2023/09/24 00:28:19;;;;;;;3.38;2.38;;;;;;;9.39;100.00;102174.97;1260160;23;20284;-91
2023/09/24 00:28:52;;;;;;;15.13;3.35;;;;;;;9.39;100.00;102174.97;1254287;23;20302;-91
2023/09/24 00:29:23;;;;;;;3.90;3.38;;;;;;;9.42;100.00;102172.78;1256227;23;20609;-91
2023/09/24 00:29:55;;;;;;;7.13;3.88;;;;;;;9.44;100.00;102170.78;1260708;23;20274;-91
2023/09/24 00:30:27;;;;;;;8.68;3.53;;;;;;;9.33;100.00;102171.19;1250016;23;20259;-91
2023/09/24 00:30:59;;;;;;;4.32;3.72;;;;;;;9.60;100.00;102177.84;1259962;23;20274;-91
2023/09/24 00:31:33;;;;;;;3.85;3.15;;;;;;;9.59;100.00;102179.69;1254143;23;20265;-91
2023/09/24 00:32:05;;;;;;;7.50;4.63;;;;;;;9.48;100.00;102182.72;1260590;23;20281;-92
2023/09/24 00:32:37;;;;;;;6.50;3.33;;;;;;;9.34;100.00;102177.34;1259915;23;20270;-91
2023/09/24 00:33:09;;;;;;;3.72;3.05;;;;;;;9.32;100.00;102179.34;1253995;23;20771;-91
2023/09/24 00:33:41;;;;;;;11.77;4.13;;;;;;;9.29;100.00;102183.16;1260153;23;20595;-91
2023/09/24 00:34:13;;;;;;;6.35;3.65;;;;;;;9.27;100.00;102177.19;1253954;23;20339;-91
2023/09/24 00:34:44;;;;;;;14.75;4.07;;;;;;;9.29;100.00;102175.19;1254423;23;20263;-91
2023/09/24 00:35:16;;;;;;;5.55;4.10;;;;;;;9.49;100.00;102179.06;1266059;23;20300;-92
2023/09/24 00:35:48;;;;;;;9.48;4.30;;;;;;;9.40;100.00;102182.78;1248260;23;20760;-91
2023/09/24 00:36:20;;;;;;;4.72;3.42;;;;;;;9.44;100.00;102194.72;1254204;23;20715;-90
2023/09/24 00:36:53;;;;;;;3.65;3.05;;;;;;;9.34;100.00;102182.66;1260063;23;20289;-91
2023/09/24 00:37:25;;;;;;;9.30;3.42;;;;;;;9.46;100.00;102187.38;1254586;23;20330;-91
2023/09/24 00:37:57;;;;;;;5.43;3.78;;;;;;;9.49;100.00;102184.38;1256332;23;20250;-91
2023/09/24 00:38:28;;;;;;;3.80;3.35;;;;;;;9.49;100.00;102184.38;1256205;23;20737;-91
2023/09/24 00:39:01;;;;;;;6.15;3.58;;;;;;;9.53;100.00;102187.50;1254121;23;20720;-91
2023/09/24 00:39:32;;;;;;;4.90;3.75;;;;;;;9.55;100.00;102188.97;1248238;23;20275;-91
2023/09/24 00:40:05;;;;;;;3.70;3.30;;;;;;;9.53;100.00;102187.50;1242847;23;20268;-91
2023/09/24 00:40:37;;;;;;;5.57;2.75;;;;;;;9.55;100.00;102181.00;1254218;23;20407;-91
2023/09/24 00:41:08;;;;;;;9.13;3.47;;;;;;;9.47;100.00;102185.56;1254180;23;20275;-91
2023/09/24 00:41:42;;;;;;;5.22;3.35;;;;;;;9.53;100.00;102190.16;1256296;23;20258;-91
2023/09/24 00:42:14;;;;;;;4.28;3.65;;;;;;;9.43;100.00;102181.59;1254223;23;20271;-91
2023/09/24 00:42:46;;;;;;;19.55;3.42;;;;;;;9.19;100.00;102180.72;1256690;23;20262;-91
2023/09/24 00:43:34;;;;;;;5.80;3.15;;;;;;;9.30;100.00;102176.84;1266018;23;20266;-91
2023/09/24 00:44:06;;;;;;;7.47;4.20;;;;;;;9.41;100.00;102187.09;1254088;23;20266;-91
2023/09/24 00:44:38;;;;;;;5.85;3.80;;;;;;;9.30;100.00;102182.16;1248098;23;20787;-91
2023/09/24 00:45:11;;;;;;;4.65;3.03;;;;;;;9.38;100.00;102183.97;1254549;23;20294;-92
2023/09/24 00:45:44;;;;;;;3.80;3.38;;;;;;;9.30;100.00;102182.97;1248200;23;20391;-91
2023/09/24 00:46:16;;;;;;;3.53;3.17;;;;;;;9.39;100.00;102190.94;1254141;23;20275;-91
2023/09/24 00:46:48;;;;;;;4.15;3.75;;;;;;;9.41;100.00;102187.09;1254123;23;20274;-92
2023/09/24 00:47:22;;;;;;;5.82;3.88;;;;;;;9.31;100.00;102189.13;1254062;23;20751;-91
2023/09/24 00:47:56;;;;;;;5.70;3.65;;;;;;;9.34;100.00;102180.81;1260489;23;20266;-91
2023/09/24 00:48:30;;;;;;;5.25;3.38;;;;;;;9.37;100.00;102183.13;1259974;23;20270;-91
2023/09/24 00:49:03;;;;;;;4.63;4.20;;;;;;;9.38;100.00;102184.78;1254273;23;20299;-91
2023/09/24 00:49:34;;;;;;;4.18;2.75;;;;;;;9.36;100.00;102192.13;1254132;23;20418;-91
2023/09/24 00:50:08;;;;;;;6.35;2.97;;;;;;;9.42;100.00;102191.41;1254132;23;20267;-91
2023/09/24 00:50:41;;;;;;;3.97;3.28;;;;;;;9.38;100.00;102190.09;1242345;23;20264;-91
2023/09/24 00:51:17;;;;;;;6.70;2.88;;;;;;;9.24;100.00;102196.16;1254158;23;20271;-91
2023/09/24 00:52:23;;;;;;;3.60;3.28;;;;;;;9.24;100.00;102188.19;1254215;23;20285;-91
2023/09/24 00:52:55;;;;;;;6.22;3.22;;;;;;;9.09;100.00;102189.94;1257212;23;20271;-91
2023/09/24 00:53:28;;;;;;;3.65;3.35;;;;;;;9.19;100.00;102187.88;1260943;23;20278;-91
2023/09/24 00:54:00;;;;;;;8.07;3.53;;;;;;;9.20;100.00;102192.19;1260072;23;20326;-91
2023/09/24 00:54:32;;;;;;;3.67;3.05;;;;;;;9.20;100.00;102194.84;1253940;23;20267;-91
2023/09/24 00:55:05;;;;;;;8.73;3.63;;;;;;;9.30;100.00;102192.78;1265800;23;20280;-91
2023/09/24 00:55:36;;;;;;;6.65;3.55;;;;;;;9.41;100.00;102192.41;1254811;23;20338;-91
2023/09/24 00:56:09;;;;;;;4.88;3.42;;;;;;;9.24;100.00;102191.66;1259909;23;20457;-91
2023/09/24 00:56:41;;;;;;;4.60;3.42;;;;;;;9.22;100.00;102190.19;1259784;23;20270;-91
2023/09/24 00:57:13;;;;;;;4.50;4.10;;;;;;;9.14;100.00;102190.22;1254084;23;20270;-91
2023/09/24 00:57:47;;;;;;;5.05;3.65;;;;;;;9.24;100.00;102198.81;1248212;23;20284;-91
2023/09/24 00:58:19;;;;;;;3.97;3.58;;;;;;;9.26;100.00;102194.16;1254456;23;20282;-91
2023/09/24 00:58:52;;;;;;;5.57;3.47;;;;;;;9.17;100.00;102190.72;1260057;23;20607;-91
2023/09/24 00:59:25;;;;;;;3.35;3.05;;;;;;;9.16;100.00;102194.38;1253910;23;20322;-91
2023/09/24 00:59:58;;;;;;;4.28;3.42;;;;;;;9.12;100.00;102194.91;1253869;23;20660;-91
2023/09/24 01:00:34;;;;;;;4.97;3.15;;;;;;;9.19;100.00;102195.84;1248246;23;20272;-91
2023/09/24 01:01:06;;;;;;;4.85;3.28;;;;;;;9.17;100.00;102193.38;1242284;23;20279;-91
2023/09/24 01:01:38;;;;;;;5.20;3.80;;;;;;;9.24;100.00;102194.31;1248102;23;20274;-91
2023/09/24 01:02:11;;;;;;;9.07;3.53;;;;;;;9.31;100.00;102183.81;1256181;23;20247;-91
2023/09/24 01:02:47;;;;;;;5.28;3.78;;;;;;;9.30;100.00;102195.44;1259868;23;20278;-91
2023/09/24 01:03:22;;;;;;;4.78;3.38;;;;;;;9.22;100.00;102195.50;1260387;23;20349;-91
2023/09/24 01:03:55;;;;;;;16.67;4.28;;;;;;;9.20;100.00;102194.84;1253943;23;20259;-90
2023/09/24 01:04:27;;;;;;;4.55;3.28;;;;;;;9.19;100.00;102193.19;1254058;23;20589;-92
2023/09/24 01:05:00;;;;;;;4.32;3.92;;;;;;;9.26;100.00;102194.16;1253824;23;20805;-91
2023/09/24 01:05:32;;;;;;;4.72;3.00;;;;;;;9.22;100.00;102192.84;1250230;23;20248;-91
2023/09/24 01:06:06;;;;;;;5.47;3.88;;;;;;;9.19;100.00;102190.53;1254712;23;20274;-92
2023/09/24 01:06:37;;;;;;;63.97;7.35;;;;;;;9.01;100.00;102189.94;1248211;23;20267;-91
2023/09/24 01:07:09;;;;;;;5.90;3.75;;;;;;;9.06;100.00;102193.75;1254109;23;20607;-91
2023/09/24 01:07:42;;;;;;;4.55;3.47;;;;;;;9.09;100.00;102196.06;1254066;23;20278;-91
2023/09/24 01:08:14;;;;;;;8.02;3.95;;;;;;;9.13;100.00;102192.06;1253906;23;20306;-92
2023/09/24 01:08:46;;;;;;;6.30;3.60;;;;;;;9.01;100.00;102192.59;1256579;23;20269;-92
2023/09/24 01:09:19;;;;;;;11.25;3.53;;;;;;;9.07;100.00;102187.44;1260038;23;20262;-91
2023/09/24 01:09:50;;;;;;;5.03;3.30;;;;;;;9.05;100.00;102194.78;1261931;23;20254;-91
2023/09/24 01:10:23;;;;;;;5.05;4.22;;;;;;;9.14;100.00;102198.22;1248210;23;20306;-91
2023/09/24 01:10:58;;;;;;;4.95;3.83;;;;;;;9.01;100.00;102198.75;1254248;23;20343;-91
2023/09/24 01:11:31;;;;;;;3.40;3.10;;;;;;;9.01;100.00;102189.94;1254136;23;20601;-91
2023/09/24 01:12:03;;;;;;;4.10;3.05;;;;;;;9.04;100.00;102197.56;1259898;23;20630;-91
2023/09/24 01:12:39;;;;;;;3.50;3.20;;;;;;;9.02;100.00;102199.56;1254227;23;20754;-91
2023/09/24 01:13:11;;;;;;;6.07;2.92;;;;;;;8.96;100.00;102191.28;1253876;23;20353;-91
2023/09/24 01:13:44;;;;;;;28.02;4.28;;;;;;;8.93;100.00;102202.28;1262710;23;20287;-91
2023/09/24 01:14:16;;;;;;;6.13;2.97;;;;;;;8.98;100.00;102204.41;1253981;23;20282;-91
2023/09/24 01:14:49;;;;;;;4.22;3.25;;;;;;;9.09;100.00;102200.56;1248132;23;20279;-91
2023/09/24 01:15:21;;;;;;;11.68;3.30;;;;;;;8.90;100.00;102194.66;1248114;23;20367;-91
2023/09/24 01:15:52;;;;;;;4.30;3.58;;;;;;;8.96;100.00;102193.94;1248184;23;20294;-91
2023/09/24 01:16:24;;;;;;;4.97;3.90;;;;;;;9.09;100.00;102195.25;1254205;23;20271;-90
2023/09/24 01:16:56;;;;;;;5.32;3.97;;;;;;;9.37;100.00;102192.94;1254085;23;20677;-91
2023/09/24 01:17:27;;;;;;;6.65;4.47;;;;;;;9.38;100.00;102194.59;1254032;23;20270;-91
2023/09/24 01:18:01;;;;;;;10.77;4.50;;;;;;;9.08;100.00;102196.25;1259775;23;20405;-91
2023/09/24 01:18:44;;;;;;;6.40;3.33;;;;;;;9.12;100.00;102190.41;1248239;23;20726;-91
2023/09/24 01:19:16;;;;;;;5.07;4.07;;;;;;;9.30;100.00;102198.94;1259600;23;20356;-91
2023/09/24 01:19:48;;;;;;;11.25;3.97;;;;;;;8.99;100.00;102190.94;1259825;23;20270;-91
2023/09/24 01:20:22;;;;;;;4.65;3.97;;;;;;;9.01;100.00;102190.78;1253907;23;20334;-91
2023/09/24 01:20:55;;;;;;;4.93;3.30;;;;;;;9.09;100.00;102192.59;1254129;23;20346;-91
2023/09/24 01:21:27;;;;;;;5.55;3.90;;;;;;;9.08;100.00;102191.75;1259734;23;20274;-91
2023/09/24 01:22:01;;;;;;;6.53;3.80;;;;;;;9.11;100.00;102185.28;1259983;23;20270;-91
2023/09/24 01:22:32;;;;;;;4.20;3.70;;;;;;;9.13;100.00;102188.56;1250231;23;20255;-91
2023/09/24 01:23:04;;;;;;;5.40;3.85;;;;;;;9.03;100.00;102190.59;1248072;23;20283;-91
2023/09/24 01:23:37;;;;;;;40.38;5.25;;;;;;;8.88;100.00;102187.84;1254051;23;20358;-91
2023/09/24 01:24:08;;;;;;;8.88;4.47;;;;;;;9.05;100.00;102188.63;1248439;23;20275;-91
2023/09/24 01:24:40;;;;;;;5.13;3.75;;;;;;;9.20;100.00;102189.53;1244415;23;20740;-91
2023/09/24 01:25:12;;;;;;;4.57;3.80;;;;;;;9.20;100.00;102193.00;1254238;23;20267;-91
2023/09/24 01:25:44;;;;;;;3.47;3.17;;;;;;;9.22;100.00;102193.66;1248230;23;20278;-91
2023/09/24 01:26:19;;;;;;;24.42;5.53;;;;;;;9.16;100.00;102198.88;1248122;23;20303;-92
2023/09/24 01:26:51;;;;;;;4.18;3.55;;;;;;;9.19;100.00;102201.16;1248864;23;20279;-91
2023/09/24 01:27:24;;;;;;;8.27;3.72;;;;;;;9.24;100.00;102193.50;1254048;23;20266;-91
2023/09/24 01:27:58;;;;;;;5.38;3.80;;;;;;;9.18;100.00;102191.53;1248139;23;20275;-91
2023/09/24 01:28:30;;;;;;;5.70;3.78;;;;;;;9.26;100.00;102186.16;1254021;23;20378;-91
2023/09/24 01:29:02;;;;;;;7.13;4.60;;;;;;;9.29;100.00;102191.13;1248334;23;20271;-91
2023/09/24 01:29:36;;;;;;;7.13;3.90;;;;;;;9.11;100.00;102182.59;1256115;23;20255;-91
2023/09/24 01:30:09;;;;;;;8.20;4.10;;;;;;;9.22;100.00;102185.69;1256005;23;20255;-91
2023/09/24 01:30:40;;;;;;;4.30;3.90;;;;;;;9.14;100.00;102188.41;1259997;23;20285;-91
2023/09/24 01:31:15;;;;;;;7.47;3.80;;;;;;;9.19;100.00;102195.84;1259884;23;20289;-91
2023/09/24 01:31:47;;;;;;;5.68;4.05;;;;;;;9.23;100.00;102186.53;1259924;23;20266;-91
2023/09/24 01:32:18;;;;;;;7.53;4.22;;;;;;;9.34;100.00;102186.16;1259904;23;20274;-91
2023/09/24 01:32:52;;;;;;;9.60;4.45;;;;;;;9.38;100.00;102179.47;1259937;23;20321;-91
2023/09/24 01:33:24;;;;;;;6.50;3.80;;;;;;;9.45;100.00;102192.88;1254012;23;20282;-91
2023/09/24 01:33:56;;;;;;;5.72;3.70;;;;;;;9.31;100.00;102194.44;1248041;23;20276;-91
2023/09/24 01:34:28;;;;;;;6.53;4.43;;;;;;;9.39;100.00;102190.94;1254537;23;20286;-91
2023/09/24 01:35:03;;;;;;;5.47;5.03;;;;;;;9.38;100.00;102184.78;1248177;23;20276;-91
2023/09/24 01:35:36;;;;;;;5.63;5.05;;;;;;;9.45;100.00;102193.72;1244259;23;20256;-91
2023/09/24 01:36:08;;;;;;;4.88;4.13;;;;;;;9.37;100.00;102185.78;1242267;23;20485;-91
2023/09/24 01:36:39;;;;;;;8.52;3.97;;;;;;;9.39;100.00;102182.97;1254026;23;20353;-91
2023/09/24 01:37:11;;;;;;;6.40;4.65;;;;;;;9.28;100.00;102184.16;1260298;23;20357;-91
2023/09/24 01:37:43;;;;;;;4.38;3.95;;;;;;;9.35;100.00;102182.47;1256145;23;20266;-90
2023/09/24 01:38:16;;;;;;;5.78;3.60;;;;;;;9.36;100.00;102191.28;1254098;23;20279;-91
2023/09/24 01:38:47;;;;;;;5.13;3.50;;;;;;;9.40;100.00;102182.78;1259952;23;20278;-91
2023/09/24 01:39:25;;;;;;;4.75;4.22;;;;;;;9.37;100.00;102188.44;1254029;23;20275;-92
2023/09/24 01:39:56;;;;;;;7.63;4.50;;;;;;;9.48;100.00;102189.88;1250472;23;20733;-91
2023/09/24 01:40:33;;;;;;;3.40;3.10;;;;;;;9.41;100.00;102188.94;1254008;23;20716;-91
2023/09/24 01:41:07;;;;;;;5.28;4.60;;;;;;;9.42;100.00;102179.94;1261973;23;20266;-91
2023/09/24 01:41:39;;;;;;;13.75;4.20;;;;;;;9.21;100.00;102185.88;1266220;23;20269;-91
2023/09/24 01:42:13;;;;;;;5.03;3.75;;;;;;;9.20;100.00;102186.88;1260046;23;20282;-91
2023/09/24 01:42:46;;;;;;;6.03;3.80;;;;;;;9.27;100.00;102193.13;1254086;23;20275;-91
2023/09/24 01:43:18;;;;;;;5.72;3.80;;;;;;;9.27;100.00;102188.66;1254039;23;20274;-90
2023/09/24 01:43:50;;;;;;;6.75;4.28;;;;;;;9.29;100.00;102191.13;1271597;23;20300;-91
2023/09/24 01:44:22;;;;;;;8.95;5.70;;;;;;;9.55;100.00;102185.50;1247851;23;20267;-91
2023/09/24 01:44:54;;;;;;;8.68;4.53;;;;;;;9.64;100.00;102184.47;1248528;23;20294;-91
2023/09/24 01:45:28;;;;;;;9.93;4.20;;;;;;;9.58;100.00;102185.16;1249943;23;20593;-91
2023/09/24 01:46:00;;;;;;;4.85;3.72;;;;;;;9.55;100.00;102188.97;1253861;23;20270;-90
2023/09/24 01:46:32;;;;;;;10.00;4.63;;;;;;;9.63;100.00;102193.44;1254002;23;20315;-91
2023/09/24 01:47:03;;;;;;;4.85;4.28;;;;;;;9.63;100.00;102190.78;1248037;23;20271;-92
2023/09/24 01:47:37;;;;;;;5.78;3.88;;;;;;;9.63;100.00;102192.63;1254492;23;20270;-91
2023/09/24 01:48:09;;;;;;;7.53;5.10;;;;;;;9.67;100.00;102192.09;1253989;23;20279;-91
2023/09/24 01:48:43;;;;;;;8.05;4.80;;;;;;;9.75;100.00;102188.53;1247927;23;20275;-91
2023/09/24 01:49:17;;;;;;;7.80;4.40;;;;;;;9.66;100.00;102186.94;1241980;23;20264;-91
2023/09/24 01:49:49;;;;;;;7.03;4.78;;;;;;;9.66;100.00;102189.59;1254210;23;20274;-91
2023/09/24 01:50:26;;;;;;;8.13;4.55;;;;;;;9.65;100.00;102187.94;1253915;23;20282;-91
2023/09/24 01:51:01;;;;;;;6.15;4.40;;;;;;;9.70;100.00;102196.22;1253979;23;20278;-91
2023/09/24 01:51:33;;;;;;;7.70;4.97;;;;;;;9.72;100.00;102192.38;1259792;23;20314;-91
2023/09/24 01:52:05;;;;;;;7.43;4.68;;;;;;;9.60;100.00;102199.94;1253947;23;20274;-91
2023/09/24 01:52:37;;;;;;;5.82;4.20;;;;;;;9.66;100.00;102192.25;1254300;23;20286;-91
2023/09/24 01:53:09;;;;;;;8.02;4.60;;;;;;;9.65;100.00;102195.94;1253977;23;20290;-91
2023/09/24 01:53:42;;;;;;;9.18;4.65;;;;;;;9.74;100.00;102195.69;1254112;23;20298;-91
2023/09/24 01:54:14;;;;;;;6.93;4.88;;;;;;;9.77;100.00;102202.47;1247975;23;20279;-91
2023/09/24 01:54:47;;;;;;;5.18;4.47;;;;;;;9.78;100.00;102202.31;1242154;23;20341;-91
2023/09/24 01:55:19;;;;;;;6.32;4.43;;;;;;;9.63;100.00;102197.94;1242505;23;20276;-91
2023/09/24 01:55:52;;;;;;;6.10;3.92;;;;;;;9.60;100.00;102199.94;1248023;23;20272;-91
2023/09/24 01:56:23;;;;;;;4.90;4.07;;;;;;;9.62;100.00;102201.59;1248058;23;20604;-91
2023/09/24 01:56:55;;;;;;;8.25;4.20;;;;;;;9.72;100.00;102199.53;1253955;23;20445;-91
2023/09/24 01:57:28;;;;;;;4.75;4.13;;;;;;;9.72;100.00;102196.88;1254079;23;20712;-91
2023/09/24 01:58:00;;;;;;;7.72;5.20;;;;;;;9.74;100.00;102200.19;1248277;23;20314;-91
2023/09/24 01:58:32;;;;;;;6.05;4.32;;;;;;;9.78;100.00;102201.47;1254185;23;20281;-91
2023/09/24 01:59:04;;;;;;;7.57;4.90;;;;;;;9.74;100.00;102202.84;1247981;23;20408;-90
2023/09/24 01:59:36;;;;;;;7.40;5.22;;;;;;;9.76;100.00;102203.50;1248227;23;20355;-90
2023/09/24 02:00:23;;;;;;;6.93;4.63;;;;;;;9.79;100.00;102208.44;1254353;23;20651;-90
2023/09/24 02:00:55;;;;;;;6.88;4.68;;;;;;;9.68;100.00;102204.38;1260087;23;20328;-91
2023/09/24 02:01:28;;;;;;;8.25;5.05;;;;;;;9.79;100.00;102203.13;1254092;23;20270;-91
2023/09/24 02:02:01;;;;;;;8.93;4.38;;;;;;;9.81;100.00;102201.13;1242130;23;20269;-91
2023/09/24 02:02:33;;;;;;;8.88;4.32;;;;;;;9.80;100.00;102204.78;1248099;23;20273;-91
2023/09/24 02:03:06;;;;;;;7.63;4.40;;;;;;;9.80;100.00;102204.78;1256701;23;20330;-91
2023/09/24 02:03:39;;;;;;;7.15;5.55;;;;;;;9.80;100.00;102202.13;1248178;23;20275;-91
2023/09/24 02:04:11;;;;;;;8.02;5.05;;;;;;;9.85;100.00;102202.41;1253868;23;20279;-91
2023/09/24 02:04:42;;;;;;;7.75;4.65;;;;;;;9.85;100.00;102199.75;1254141;23;20271;-91
2023/09/24 02:05:15;;;;;;;12.82;5.13;;;;;;;9.87;100.00;102205.75;1248210;23;20270;-91
2023/09/24 02:05:46;;;;;;;9.45;4.55;;;;;;;9.82;100.00;102198.28;1254386;23;20274;-91
2023/09/24 02:06:19;;;;;;;8.35;4.57;;;;;;;9.80;100.00;102205.59;1254022;23;20267;-91
2023/09/24 02:06:50;;;;;;;6.38;4.53;;;;;;;9.71;100.00;102201.38;1260134;23;20580;-91
2023/09/24 02:07:22;;;;;;;7.20;4.57;;;;;;;9.69;100.00;102194.56;1242151;23;20278;-90
2023/09/24 02:07:54;;;;;;;7.72;4.40;;;;;;;9.65;100.00;102201.25;1248505;23;20275;-91
2023/09/24 02:08:26;;;;;;;5.35;4.22;;;;;;;9.66;100.00;102198.41;1254126;23;20409;-91
2023/09/24 02:08:58;;;;;;;7.60;5.68;;;;;;;9.71;100.00;102195.22;1242183;23;20279;-91
2023/09/24 02:09:29;;;;;;;7.13;5.03;;;;;;;9.64;100.00;102204.91;1253909;23;20279;-91
2023/09/24 02:10:01;;;;;;;8.07;3.95;;;;;;;9.57;100.00;102202.94;1254133;23;20273;-91
2023/09/24 02:10:40;;;;;;;5.93;4.45;;;;;;;9.67;100.00;102199.25;1248671;23;20302;-91
2023/09/24 02:11:12;;;;;;;6.72;4.75;;;;;;;9.70;100.00;102204.19;1260024;23;20266;-91
2023/09/24 02:11:44;;;;;;;6.25;4.72;;;;;;;9.60;100.00;102201.78;1254104;23;20278;-91
2023/09/24 02:12:16;;;;;;;3.88;3.40;;;;;;;9.60;100.00;102205.28;1254152;23;20267;-90
2023/09/24 02:12:48;;;;;;;5.30;3.75;;;;;;;9.53;100.00;102201.63;1266085;23;20265;-91
2023/09/24 02:13:20;;;;;;;6.50;4.63;;;;;;;9.54;100.00;102205.94;1254935;23;20759;-91
2023/09/24 02:13:52;;;;;;;5.82;5.30;;;;;;;9.41;100.00;102199.56;1248134;23;20414;-91
2023/09/24 02:14:24;;;;;;;5.15;4.32;;;;;;;9.38;100.00;102206.06;1248209;23;20310;-91
2023/09/24 02:14:56;;;;;;;5.72;3.95;;;;;;;9.33;100.00;102208.44;1248136;23;20278;-91
2023/09/24 02:15:28;;;;;;;6.68;3.83;;;;;;;9.39;100.00;102210.38;1254072;23;20275;-91
2023/09/24 02:16:00;;;;;;;5.47;4.15;;;;;;;9.52;100.00;102207.97;1254489;23;20278;-91
2023/09/24 02:16:33;;;;;;;6.45;4.35;;;;;;;9.15;100.00;102202.53;1248184;23;20388;-91
2023/09/24 02:17:05;;;;;;;4.20;3.80;;;;;;;9.19;100.00;102206.47;1248032;23;20282;-91
2023/09/24 02:17:40;;;;;;;7.82;4.50;;;;;;;9.23;100.00;102208.63;1259943;23;20258;-91
2023/09/24 02:18:12;;;;;;;4.28;3.58;;;;;;;9.17;100.00;102203.19;1254240;23;20271;-91
2023/09/24 02:18:46;;;;;;;10.43;3.45;;;;;;;8.98;100.00;102199.91;1260144;23;20742;-91
2023/09/24 02:19:17;;;;;;;7.00;4.35;;;;;;;9.20;100.00;102203.66;1254106;23;20271;-92
2023/09/24 02:19:51;;;;;;;4.45;3.60;;;;;;;9.16;100.00;102201.53;1259995;23;20274;-92
2023/09/24 02:20:24;;;;;;;15.15;4.70;;;;;;;9.04;100.00;102202.88;1259939;23;20278;-91
2023/09/24 02:20:57;;;;;;;6.07;4.07;;;;;;;9.08;100.00;102198.91;1257400;23;20265;-91
2023/09/24 02:21:30;;;;;;;8.60;4.38;;;;;;;9.02;100.00;102205.72;1253994;23;20262;-91
2023/09/24 02:22:03;;;;;;;5.30;4.00;;;;;;;9.07;100.00;102203.41;1259943;23;20317;-92
2023/09/24 02:22:34;;;;;;;5.10;3.78;;;;;;;9.08;100.00;102198.91;1248249;23;20291;-92
2023/09/24 02:23:06;;;;;;;11.43;4.68;;;;;;;9.10;100.00;102204.88;1242167;23;20346;-91
2023/09/24 02:23:38;;;;;;;13.23;4.53;;;;;;;9.03;100.00;102202.06;1248535;23;20263;-91
2023/09/24 02:24:10;;;;;;;6.40;4.18;;;;;;;8.98;100.00;102205.22;1259924;23;20254;-91
2023/09/24 02:24:41;;;;;;;8.45;3.47;;;;;;;8.88;100.00;102196.66;1260016;23;20262;-91
2023/09/24 02:25:15;;;;;;;6.53;4.55;;;;;;;8.98;100.00;102199.91;1254101;23;20855;-92
2023/09/24 02:25:46;;;;;;;6.10;4.05;;;;;;;9.05;100.00;102201.91;1254035;23;20278;-91
2023/09/24 02:26:18;;;;;;;11.00;4.93;;;;;;;9.07;100.00;102197.25;1254618;23;20282;-91
2023/09/24 02:26:50;;;;;;;9.80;3.97;;;;;;;8.88;100.00;102194.00;1254035;23;20275;-91
2023/09/24 02:27:22;;;;;;;8.98;4.30;;;;;;;8.97;100.00;102194.78;1254144;23;20369;-91
2023/09/24 02:27:54;;;;;;;7.80;4.63;;;;;;;9.03;100.00;102193.25;1248116;23;20272;-91
2023/09/24 02:28:25;;;;;;;5.57;4.38;;;;;;;8.96;100.00;102196.59;1253967;23;20291;-91
2023/09/24 02:28:57;;;;;;;4.97;3.97;;;;;;;8.94;100.00;102195.97;1256668;23;20247;-90
2023/09/24 02:29:29;;;;;;;5.97;3.53;;;;;;;8.87;100.00;102196.81;1248041;23;20279;-91
2023/09/24 02:30:01;;;;;;;11.65;4.32;;;;;;;8.97;100.00;102197.44;1254033;23;20639;-91
2023/09/24 02:30:34;;;;;;;5.70;3.92;;;;;;;8.89;100.00;102200.97;1256162;23;20484;-91
2023/09/24 02:31:07;;;;;;;26.13;4.80;;;;;;;8.83;100.00;102199.00;1248065;23;20350;-91
2023/09/24 02:31:39;;;;;;;5.60;3.88;;;;;;;8.86;100.00;102190.69;1243021;23;20276;-92
2023/09/24 02:32:12;;;;;;;4.75;4.25;;;;;;;8.85;100.00;102199.66;1254100;23;20747;-91